Terminal Aerodrome Forecast
Issued by NWS Melbourne, FL

Home | Current Version | Previous Version | Text Only | Print | Product List | Glossary On
Versions: 1 2 3 4 5 6 7 8 9 10 11 12
000
FTUS42 KMLB 242326
TAFVRB
TAF
KVRB 242326Z 2500/2524 13009KT P6SM SCT030
     FM250200 15005KT P6SM SCT250
     FM251300 15007KT P6SM SCT040
     FM251800 12010KT P6SM VCTS BKN035CB=

USA.gov is the U.S. government's official web portal to all federal, state and local government web resources and services.